Latest Weather Observations for Braidwood

IDN60901

Issued at 10:21 pm EDT Saturday 25 February 2017 (issued every 10 minutes, with the page automatically refreshed every 10 minutes)

About weather observations | Map of Canberra area stations | Latest observations for Canberra area | Other Formats
Station Details ID: 069132 Name: BRAIDWOOD RACECOURSE AWS Lat: -35.43 Lon: 149.78 Height: 665.2 m
Data from the previous 72 hours. | See also: Recent months at Braidwood
Date/Time
EDT
Temp
°C
App
Temp
°C
Dew
Point
°C
Rel
Hum
%
Delta-T
°C
Wind Press
QNH
hPa
Press
MSL
hPa
Rain since
9am
mm
Dir  Spd
km/h
Gust
km/h
Spd
kts
Gust
kts
25/10:00pm 13.9 11.8 12.5 91 0.8 SSE 15 24 8 13 1024.0 1021.3 0.0
25/09:30pm 14.2 11.8 12.6 90 0.9 SSE 17 24 9 13 1023.8 1021.1 0.0
25/09:00pm 14.2 12.2 12.6 90 0.9 SSE 15 20 8 11 1023.6 1021.0 0.0
25/08:30pm 14.0 12.6 12.2 89 1.0 SSE 11 17 6 9 1023.5 1020.9 0.0
25/08:00pm 14.4 11.7 11.7 84 1.5 SSE 17 24 9 13 1023.3 1020.7 0.0
25/07:30pm 15.0 11.8 11.4 79 2.0 SSE 19 28 10 15 1023.0 1020.3 0.0
25/07:00pm 15.4 12.6 11.4 77 2.2 SE 17 26 9 14 1022.7 1020.0 0.0
25/06:30pm 15.9 13.0 11.1 73 2.7 SE 17 24 9 13 1022.6 1019.9 0.0
25/06:00pm 16.5 13.5 10.6 68 3.2 SE 17 24 9 13 1022.6 1019.9 0.0
25/05:30pm 17.3 14.1 10.0 62 4.0 SE 17 28 9 15 1022.5 1019.8 0.0
25/05:00pm 17.1 14.1 9.3 60 4.2 SE 15 24 8 13 1022.6 1019.9 0.0
25/04:30pm 17.2 13.2 8.9 58 4.4 SSE 20 28 11 15 1022.6 1019.9 0.0
25/04:00pm 18.0 14.5 10.1 60 4.3 SE 19 28 10 15 1022.7 1020.0 0.0
25/03:30pm 17.6 13.8 9.8 60 4.3 ESE 20 28 11 15 1022.8 1020.1 0.0
25/03:00pm 17.3 14.0 9.7 61 4.1 SE 17 26 9 14 1023.1 1020.4 0.0
25/02:30pm 17.0 13.2 8.9 59 4.3 SSE 19 26 10 14 1023.4 1020.8 0.0
25/02:00pm 16.0 13.0 9.4 65 3.5 SSE 15 20 8 11 1023.6 1021.0 0.0
25/01:30pm 15.9 12.9 9.3 65 3.5 S 15 22 8 12 1024.1 1021.4 0.0
25/01:00pm 15.8 12.4 9.0 64 3.6 S 17 24 9 13 1023.9 1021.2 0.0
25/12:30pm 15.3 12.2 8.8 65 3.4 S 15 20 8 11 1024.0 1021.3 0.0
25/12:00pm 15.3 12.2 9.0 66 3.3 S 15 19 8 10 1024.0 1021.3 0.0
25/11:30am 14.5 11.1 9.3 71 2.8 SSE 17 20 9 11 1024.4 1021.7 0.0
25/11:00am 13.7 9.8 9.4 75 2.3 S 20 24 11 13 1024.6 1022.0 0.0
25/10:30am 13.1 9.3 9.2 77 2.0 SSE 19 28 10 15 1024.7 1022.1 0.0
25/10:00am 13.5 10.4 9.0 74 2.3 SSE 15 24 8 13 1024.4 1021.7 0.0
25/09:30am 12.5 8.4 8.6 77 2.0 SSE 20 28 11 15 1024.4 1021.7 0.0
25/09:00am 12.0 8.4 8.3 78 1.9 SSE 17 26 9 14 1024.3 1021.6 0.0
25/08:30am 11.8 8.3 8.8 82 1.5 SSE 17 22 9 12 1024.0 1021.3 0.0
25/08:00am 11.9 9.6 9.1 83 1.4 SE 11 19 6 10 1023.6 1021.0 0.0
25/07:30am 11.4 8.9 9.7 89 0.9 SSE 13 19 7 10 1023.3 1020.7 0.0
25/07:00am 11.5 9.4 9.6 88 1.0 SE 11 17 6 9 1023.2 1020.6 0.0
25/06:30am 11.7 9.3 9.9 89 0.9 SE 13 19 7 10 1023.1 1020.4 0.0
25/06:00am 11.9 10.0 10.5 91 0.7 SE 11 19 6 10 1022.7 1020.0 0.0
25/05:30am 12.1 9.5 10.7 91 0.8 SE 15 20 8 11 1022.7 1020.0 0.0
25/05:00am 12.3 9.8 11.2 93 0.6 SE 15 20 8 11 1022.6 1019.9 0.0
25/04:30am 12.5 9.7 11.4 93 0.6 ESE 17 20 9 11 1022.5 1019.8 0.0
25/04:00am 12.8 10.5 11.7 93 0.6 SE 15 19 8 10 1022.4 1019.7 0.0
25/03:30am 12.8 11.3 11.9 94 0.5 SE 11 17 6 9 1022.4 1019.7 0.0
25/03:00am 12.9 10.7 12.0 94 0.5 SE 15 22 8 12 1022.5 1019.8 0.0
25/02:30am 13.0 11.2 12.1 94 0.5 SE 13 17 7 9 1022.7 1020.0 0.0
25/02:00am 13.1 11.7 12.3 95 0.4 SE 11 17 6 9 1022.9 1020.2 0.0
25/01:30am 13.2 11.8 12.3 94 0.5 SSE 11 17 6 9 1023.2 1020.6 0.0
25/01:00am 13.6 12.0 12.7 94 0.5 SE 13 19 7 10 1023.2 1020.6 0.0
25/12:30am 13.8 12.7 13.0 95 0.5 SE 11 17 6 9 1023.4 1020.8 0.0
25/12:00am 13.9 12.0 13.0 94 0.5 SE 15 20 8 11 1023.8 1021.1 0.0
 
Date/Time
EDT
Temp
°C
App
Temp
°C
Dew
Point
°C
Rel
Hum
%
Delta-T
°C
Wind Press
QNH
hPa
Press
MSL
hPa
Rain since
9am
mm
Dir  Spd
km/h
Gust
km/h
Spd
kts
Gust
kts
24/11:30pm 14.0 12.4 12.9 93 0.6 SE 13 24 7 13 1024.1 1021.4 0.0
24/11:00pm 14.3 12.4 12.9 91 0.8 SE 15 26 8 14 1024.3 1021.6 0.0
24/10:30pm 14.6 12.8 13.3 92 0.7 SE 15 22 8 12 1024.3 1021.6 0.0
24/10:00pm 14.8 13.1 13.7 93 0.6 SSE 15 20 8 11 1024.3 1021.6 0.0
24/09:30pm 15.1 12.4 13.6 91 0.9 SSE 20 28 11 15 1024.1 1021.4 0.0
24/09:00pm 15.8 13.2 13.3 85 1.4 SE 19 28 10 15 1023.8 1021.1 0.0
24/08:30pm 16.1 13.9 13.2 83 1.7 SSE 17 22 9 12 1023.2 1020.6 0.0
24/08:00pm 16.1 14.1 13.8 86 1.3 SE 17 22 9 12 1022.8 1020.1 0.0
24/07:30pm 16.4 14.4 13.9 85 1.5 SE 17 24 9 13 1022.5 1019.8 0.0
24/07:00pm 16.4 14.0 13.9 85 1.5 SE 19 24 10 13 1022.3 1019.6 0.0
24/06:30pm 16.7 14.4 14.2 85 1.5 SE 19 28 10 15 1021.9 1019.3 0.0
24/06:00pm 16.9 14.3 13.8 82 1.8 ESE 20 28 11 15 1021.6 1018.9 0.0
24/05:30pm 17.8 14.2 14.1 79 2.2 ESE 26 35 14 19 1021.0 1018.3 0.0
24/05:00pm 18.2 13.8 14.1 77 2.4 ESE 30 39 16 21 1020.7 1018.0 0.0
24/04:30pm 20.3 16.9 14.7 70 3.4 ESE 26 37 14 20 1020.6 1017.9 0.0
24/04:00pm 21.5 17.6 14.4 64 4.3 ESE 28 37 15 20 1020.2 1017.5 0.0
24/03:30pm 22.6 19.8 14.2 59 5.1 ESE 22 32 12 17 1020.2 1017.5 0.0
24/03:00pm 24.1 21.9 14.8 56 5.7 E 20 28 11 15 1020.4 1017.7 0.0
24/02:30pm 23.9 22.2 14.6 56 5.7 E 17 24 9 13 1020.8 1018.1 0.0
24/02:00pm 24.6 23.8 14.1 52 6.4 NE 11 22 6 12 1021.1 1018.4 0.0
24/01:30pm 24.0 22.4 13.8 53 6.2 E 15 24 8 13 1021.5 1018.8 0.0
24/01:00pm 23.6 23.5 14.0 55 5.8 ENE 7 17 4 9 1021.9 1019.3 0.0
24/12:30pm 21.9 21.2 13.3 58 5.1 E 9 17 5 9 1022.5 1019.8 0.0
24/12:00pm 22.1 22.2 14.0 60 4.8 ENE 6 15 3 8 1022.9 1020.2 0.0
24/11:30am 20.5 20.3 13.5 64 4.1 SE 7 15 4 8 1023.2 1020.6 0.0
24/11:00am 18.9 19.1 12.9 68 3.5 SE 4 11 2 6 1023.6 1021.0 0.0
24/10:30am 18.2 17.4 12.9 71 3.1 E 9 13 5 7 1023.8 1021.1 0.0
24/10:00am 17.7 17.2 12.6 72 2.9 E 7 11 4 6 1023.9 1021.2 0.0
24/09:30am 17.6 17.1 12.5 72 2.9 ESE 7 13 4 7 1023.9 1021.2 0.0
24/09:00am 17.1 15.3 12.2 73 2.8 SE 13 15 7 8 1023.6 1021.0 0.0
24/08:30am 17.1 16.2 12.6 75 2.6 SSE 9 13 5 7 1023.4 1020.8 0.0
24/08:00am 16.5 15.1 12.3 76 2.4 SSE 11 15 6 8 1023.3 1020.7 0.0
24/07:30am 16.1 14.7 12.3 78 2.2 S 11 15 6 8 1023.1 1020.4 0.0
24/07:00am 16.0 15.5 13.8 87 1.3 SSE 9 13 5 7 1022.6 1019.9 0.0
24/06:30am 16.0 15.2 14.0 88 1.2 SE 11 17 6 9 1022.4 1019.7 0.0
24/06:00am 16.0 14.6 14.4 90 0.9 SE 15 20 8 11 1022.0 1019.4 0.0
24/05:30am 16.3 15.4 14.8 91 0.9 SE 13 19 7 10 1021.8 1019.2 0.0
24/05:00am 16.7 16.4 15.4 92 0.8 SE 11 15 6 8 1021.7 1019.0 0.0
24/04:30am 16.9 15.9 15.6 92 0.8 SE 15 20 8 11 1021.6 1018.9 0.0
24/04:00am 17.2 17.5 15.9 92 0.8 SE 9 13 5 7 1021.6 1018.9 0.0
24/03:30am 17.6 17.5 15.9 90 1.0 SE 11 15 6 8 1021.5 1018.8 0.0
24/03:00am 18.1 18.0 16.1 88 1.2 SE 11 17 6 9 1021.5 1018.8 0.0
24/02:30am 18.3 17.6 16.3 88 1.2 SE 15 20 8 11 1021.3 1018.6 0.0
24/02:00am 18.6 18.7 16.4 87 1.4 SE 11 17 6 9 1021.5 1018.8 0.0
24/01:30am 18.9 19.2 16.9 88 1.2 SSE 11 17 6 9 1021.5 1018.8 0.0
24/01:00am 18.7 18.6 17.0 90 1.1 SSE 13 20 7 11 1021.6 1018.9 0.0
24/12:30am 18.3 17.8 16.8 91 0.9 SSE 15 22 8 12 1021.6 1018.9 0.0
24/12:00am 18.1 18.2 16.6 91 0.9 SSE 11 17 6 9 1021.7 1019.0 0.0
 
Date/Time
EDT
Temp
°C
App
Temp
°C
Dew
Point
°C
Rel
Hum
%
Delta-T
°C
Wind Press
QNH
hPa
Press
MSL
hPa
Rain since
9am
mm
Dir  Spd
km/h
Gust
km/h
Spd
kts
Gust
kts
23/11:30pm 18.5 18.0 17.0 91 0.9 S 15 24 8 13 1021.6 1018.9 0.0
23/11:00pm 18.6 18.4 16.6 88 1.2 SSE 13 19 7 10 1021.5 1018.8 0.0
23/10:30pm 19.4 18.2 16.2 82 2.0 S 17 24 9 13 1021.3 1018.6 0.0
23/10:00pm 20.6 20.1 15.8 74 2.9 S 13 19 7 10 1021.1 1018.4 0.0
23/09:30pm 22.2 21.4 15.1 64 4.3 SSE 13 22 7 12 1020.4 1017.7 0.0
23/09:00pm 22.0 20.8 6.3 36 8.2 SW 2 9 1 5 1019.8 1017.1 0.0
23/08:30pm 24.6 23.8 6.4 31 9.7 CALM 0 0 0 0 1019.1 1016.3 0.0
23/08:00pm 26.9 26.2 6.9 28 10.9 CALM 0 0 0 0 1018.8 1016.1 0.0
23/07:30pm 28.8 27.2 6.2 24 12.3 NW 4 6 2 3 1018.5 1015.8 0.0
23/07:00pm 30.4 27.9 4.9 20 13.7 WNW 7 9 4 5 1018.2 1015.5 0.0
23/06:30pm 32.0 28.6 3.9 17 15.0 NW 11 20 6 11 1018.0 1015.3 0.0
23/06:00pm 33.2 29.6 4.9 17 15.4 WNW 13 22 7 12 1018.0 1015.3 0.0
23/05:30pm 33.4 29.4 5.0 17 15.5 WNW 15 28 8 15 1018.0 1015.3 0.0
23/05:00pm 33.5 29.9 5.1 17 15.5 NNW 13 28 7 15 1018.0 1015.3 0.0
23/04:30pm 33.3 29.0 3.2 15 16.0 W 15 30 8 16 1018.1 1015.4 0.0
23/04:00pm 32.8 28.4 4.6 17 15.2 W 17 28 9 15 1018.3 1015.6 0.0
23/03:30pm 32.6 27.8 4.4 17 15.2 W 19 43 10 23 1018.5 1015.8 0.0
23/03:00pm 32.3 27.8 4.2 17 15.0 W 17 28 9 15 1018.7 1016.0 0.0
23/02:30pm 32.4 26.9 4.2 17 15.1 WNW 22 33 12 18 1019.2 1016.5 0.0
23/02:00pm 32.5 27.2 5.1 18 14.9 W 22 37 12 20 1019.2 1016.5 0.0
23/01:30pm 32.8 29.5 9.6 24 13.6 NW 17 30 9 16 1019.6 1016.9 0.0
23/01:00pm 32.0 27.6 7.6 22 13.8 NW 20 32 11 17 1019.8 1017.1 0.0
23/12:30pm 31.1 26.8 9.3 26 12.6 WNW 22 35 12 19 1020.0 1017.3 0.0
23/12:00pm 30.4 27.1 10.9 30 11.5 NW 19 35 10 19 1020.2 1017.5 0.0
23/11:30am 29.5 24.3 10.1 30 11.3 WNW 28 41 15 22 1020.4 1017.7 0.0
23/11:00am 29.6 26.8 11.2 32 10.9 NW 17 30 9 16 1020.8 1018.1 0.0
23/10:30am 27.0 26.3 11.9 39 8.9 NW 7 17 4 9 1021.0 1018.3 0.0
23/10:00am 24.5 24.3 13.1 49 6.8 N 6 11 3 6 1021.1 1018.4 0.0
23/09:30am 21.9 23.1 13.8 60 4.8 CALM 0 0 0 0 1021.1 1018.4 0.0
23/09:00am 19.7 20.6 15.1 75 2.8 N 4 7 2 4 1021.0 1018.3 0.2
23/08:30am 17.1 18.3 14.9 87 1.3 N 2 4 1 2 1021.0 1018.3 0.2
23/08:00am 14.6 15.9 14.0 96 0.3 CALM 0 2 0 1 1020.7 1018.0 0.2
23/07:30am 12.6 13.3 12.1 97 0.3 CALM 0 0 0 0 1020.4 1017.7 0.2
23/07:00am 12.4 12.6 11.8 96 0.3 WSW 2 6 1 3 1020.1 1017.4 0.2
23/06:30am 11.6 11.9 11.0 96 0.3 CALM 0 0 0 0 1019.6 1016.9 0.2
23/06:00am 11.8 12.1 11.0 95 0.4 CALM 0 0 0 0 1019.4 1016.7 0.2
23/05:30am 12.5 13.1 11.9 96 0.3 CALM 0 0 0 0 1019.3 1016.6 0.2
23/05:00am 11.2 11.2 9.8 91 0.7 CALM 0 2 0 1 1019.0 1016.2 0.2
23/04:30am 12.9 13.5 12.0 94 0.5 CALM 0 0 0 0 1019.3 1016.6 0.2
23/04:00am 13.4 14.1 12.1 92 0.7 CALM 0 0 0 0 1019.1 1016.3 0.2
23/03:30am 14.2 15.0 12.6 90 0.9 CALM 0 0 0 0 1019.2 1016.5 0.2
23/03:00am 15.0 15.6 13.0 88 1.1 NNE 2 6 1 3 1019.1 1016.3 0.2
23/02:30am 15.5 15.8 13.5 88 1.2 NNE 4 7 2 4 1019.4 1016.7 0.2
23/02:00am 15.1 15.7 13.1 88 1.1 NNE 2 7 1 4 1019.8 1017.1 0.2
23/01:30am 15.8 16.5 13.5 86 1.3 N 2 6 1 3 1020.0 1017.3 0.2
23/01:00am 16.4 17.3 13.9 85 1.5 NNE 2 6 1 3 1020.1 1017.4 0.2
23/12:30am 16.1 17.4 14.1 88 1.2 CALM 0 6 0 3 1020.2 1017.5 0.2
23/12:00am 14.7 15.3 12.0 84 1.5 CALM 0 0 0 0 1020.3 1017.6 0.2
 
Date/Time
EDT
Temp
°C
App
Temp
°C
Dew
Point
°C
Rel
Hum
%
Delta-T
°C
Wind Press
QNH
hPa
Press
MSL
hPa
Rain since
9am
mm
Dir  Spd
km/h
Gust
km/h
Spd
kts
Gust
kts
22/11:30pm 16.2 17.3 13.5 84 1.6 CALM 0 0 0 0 1020.1 1017.4 0.2
22/11:00pm 16.4 17.2 12.6 78 2.2 CALM 0 0 0 0 1020.1 1017.4 0.2
22/10:30pm 17.3 18.3 13.2 77 2.4 CALM 0 0 0 0 1020.2 1017.5 0.2

Latest Capital City Observations: Canberra | Sydney | Melbourne | Brisbane | Adelaide | Perth | Hobart | Darwin

Other Formats:

Comma delimited format used in spreadsheet applications
http://www.bom.gov.au/fwo/IDN60903/IDN60903.94927.axf

JavaScript Object Notation format (JSON) in row-major order
http://www.bom.gov.au/fwo/IDN60903/IDN60903.94927.json